createdAt,value
2023-03-29T00:01:35.999Z,11.13
2023-03-29T00:06:38.886Z,11.16
2023-03-29T00:11:41.644Z,11.26
2023-03-29T00:16:47.074Z,11.31
2023-03-29T00:21:49.831Z,11.32
2023-03-29T00:26:52.299Z,11.24
2023-03-29T00:31:56.218Z,11.24
2023-03-29T00:36:59.772Z,11.29
2023-03-29T00:42:02.850Z,11.24
2023-03-29T00:47:05.370Z,11.14
2023-03-29T00:52:08.376Z,11.14
2023-03-29T00:57:13.972Z,10.95
2023-03-29T01:02:22.367Z,10.71
2023-03-29T01:07:28.670Z,10.62
2023-03-29T01:12:36.281Z,10.56
2023-03-29T01:17:40.792Z,10.50
2023-03-29T01:22:55.885Z,10.48
2023-03-29T01:28:08.056Z,10.37
2023-03-29T01:33:21.572Z,10.17
2023-03-29T01:38:32.528Z,10.17
2023-03-29T01:43:42.543Z,10.08
2023-03-29T01:48:59.419Z,10.04
2023-03-29T01:54:07.964Z,9.85
2023-03-29T01:59:20.967Z,9.71
2023-03-29T02:04:29.375Z,9.69
2023-03-29T02:09:34.363Z,9.64
2023-03-29T02:14:39.940Z,9.70
2023-03-29T02:20:22.640Z,9.70
2023-03-29T02:25:27.176Z,9.70
2023-03-29T02:30:36.933Z,9.69
2023-03-29T02:35:46.624Z,9.72
2023-03-29T02:40:49.197Z,9.69
2023-03-29T02:45:53.491Z,9.68
2023-03-29T02:51:01.457Z,9.75
2023-03-29T02:56:10.477Z,9.72
2023-03-29T03:01:13.800Z,9.64
2023-03-29T03:06:16.653Z,9.60
2023-03-29T03:11:21.802Z,9.62
2023-03-29T03:16:27.443Z,9.64
2023-03-29T03:21:30.372Z,9.69
2023-03-29T03:26:36.154Z,9.79
2023-03-29T03:31:43.401Z,9.80
2023-03-29T03:36:50.882Z,9.91
2023-03-29T03:41:53.432Z,9.95
2023-03-29T03:46:56.514Z,9.87
2023-03-29T03:51:59.315Z,10.07
2023-03-29T03:57:02.483Z,10.19
2023-03-29T04:02:20.533Z,10.30
2023-03-29T04:07:25.639Z,10.37
2023-03-29T04:12:46.999Z,10.43
2023-03-29T04:17:50.799Z,10.61
2023-03-29T04:23:02.205Z,10.64
2023-03-29T04:28:09.239Z,10.74
2023-03-29T04:33:21.659Z,10.77
2023-03-29T04:38:36.304Z,10.91
2023-03-29T04:43:40.209Z,10.96
2023-03-29T04:48:56.885Z,11.14
2023-03-29T04:54:09.079Z,11.26
2023-03-29T04:59:30.435Z,11.37
2023-03-29T05:04:33.363Z,11.55
2023-03-29T05:09:46.426Z,11.70
2023-03-29T05:14:49.100Z,11.80
2023-03-29T05:19:56.424Z,11.88
2023-03-29T05:25:02.741Z,12.02
2023-03-29T05:30:06.438Z,12.17
2023-03-29T05:35:29.375Z,12.43
2023-03-29T05:40:34.405Z,12.59
2023-03-29T05:46:18.017Z,12.82
2023-03-29T05:51:26.533Z,12.98
2023-03-29T05:56:31.371Z,13.14
2023-03-29T06:01:34.818Z,13.53
2023-03-29T06:06:43.571Z,13.77
2023-03-29T06:11:47.824Z,13.93
2023-03-29T06:17:02.002Z,14.16
2023-03-29T06:22:05.058Z,14.25
2023-03-29T06:27:09.697Z,14.51
2023-03-29T06:32:12.945Z,14.67
2023-03-29T06:37:23.576Z,14.94
2023-03-29T06:42:35.974Z,15.16
2023-03-29T06:47:51.090Z,15.42
2023-03-29T06:52:57.074Z,15.67
2023-03-29T06:58:02.451Z,15.91
2023-03-29T07:03:08.411Z,16.08
2023-03-29T07:08:15.620Z,16.18
2023-03-29T07:13:39.234Z,16.23
2023-03-29T07:18:44.508Z,16.66
2023-03-29T07:23:55.185Z,16.66
2023-03-29T07:28:58.128Z,16.74
2023-03-29T07:34:01.208Z,16.91
2023-03-29T07:39:04.431Z,17.07
2023-03-29T07:44:09.848Z,17.18
2023-03-29T07:49:13.974Z,17.44
2023-03-29T07:54:35.607Z,17.53
2023-03-29T08:00:16.849Z,17.44
2023-03-29T08:05:40.899Z,17.28
2023-03-29T08:10:50.816Z,17.46
2023-03-29T08:16:14.006Z,17.66
2023-03-29T08:21:24.405Z,17.58
2023-03-29T08:26:27.124Z,17.56
2023-03-29T08:31:31.701Z,18.09
2023-03-29T08:36:34.417Z,18.08
2023-03-29T08:41:57.999Z,18.11
2023-03-29T08:47:25.522Z,17.78
2023-03-29T08:52:31.566Z,17.70
2023-03-29T08:57:49.670Z,17.60
2023-03-29T09:03:09.371Z,17.84
2023-03-29T09:08:17.943Z,17.97
2023-03-29T09:13:58.850Z,18.01
2023-03-29T09:19:04.658Z,18.09
2023-03-29T09:24:10.965Z,18.32
2023-03-29T09:29:39.402Z,18.07
2023-03-29T09:34:57.426Z,17.97
2023-03-29T09:40:05.087Z,18.13
2023-03-29T09:45:23.310Z,17.98
2023-03-29T09:50:37.098Z,18.17
2023-03-29T09:55:45.072Z,18.68
2023-03-29T10:01:10.609Z,18.84
2023-03-29T10:06:14.867Z,18.65
2023-03-29T10:11:38.754Z,18.60
2023-03-29T10:16:46.584Z,19.02
2023-03-29T10:21:51.876Z,19.09
2023-03-29T10:26:59.236Z,18.85
2023-03-29T10:32:02.472Z,18.72
2023-03-29T10:37:06.505Z,18.56
2023-03-29T10:42:15.116Z,18.43
2023-03-29T10:47:21.864Z,18.03
2023-03-29T10:52:25.369Z,17.89
2023-03-29T10:57:42.188Z,17.63
2023-03-29T11:03:02.652Z,17.76
2023-03-29T11:08:09.765Z,17.85
2023-03-29T11:13:30.881Z,17.81
2023-03-29T11:18:59.907Z,18.01
2023-03-29T11:24:37.783Z,18.25
2023-03-29T11:30:13.717Z,18.58
2023-03-29T11:35:42.960Z,18.67
2023-03-29T11:41:16.130Z,18.64
2023-03-29T11:46:38.067Z,18.52
2023-03-29T11:51:51.142Z,18.51
2023-03-29T11:57:12.517Z,18.70
2023-03-29T12:02:38.343Z,19.05
2023-03-29T12:07:49.000Z,19.66
2023-03-29T12:13:24.893Z,22.17
2023-03-29T12:18:41.722Z,23.91
2023-03-29T12:23:45.025Z,24.42
2023-03-29T12:29:24.735Z,24.59
2023-03-29T12:35:03.464Z,25.16
2023-03-29T12:40:45.745Z,24.99
2023-03-29T12:46:32.877Z,23.93
2023-03-29T12:51:40.825Z,22.41
2023-03-29T12:56:58.957Z,22.98
2023-03-29T13:02:16.206Z,22.27
2023-03-29T13:07:32.035Z,20.84
2023-03-29T13:12:42.552Z,19.85
2023-03-29T13:18:01.030Z,19.33
2023-03-29T13:23:44.669Z,19.10
2023-03-29T13:29:19.413Z,18.56
2023-03-29T13:34:31.871Z,18.23
2023-03-29T13:39:37.532Z,18.04
2023-03-29T13:44:46.743Z,18.35
2023-03-29T13:49:56.944Z,18.17
2023-03-29T13:55:19.889Z,17.87
2023-03-29T14:00:37.456Z,17.63
2023-03-29T14:05:45.245Z,17.34
2023-03-29T14:10:50.413Z,17.04
2023-03-29T14:16:10.866Z,16.87
2023-03-29T14:21:16.259Z,16.72
2023-03-29T14:26:22.680Z,16.64
2023-03-29T14:31:35.405Z,16.59
2023-03-29T14:36:39.290Z,16.51
2023-03-29T14:41:48.579Z,16.42
2023-03-29T14:46:51.575Z,16.30
2023-03-29T14:51:57.626Z,16.22
2023-03-29T14:57:03.816Z,16.08
2023-03-29T15:02:23.581Z,15.96
2023-03-29T15:07:28.613Z,15.80
2023-03-29T15:12:32.676Z,15.68
2023-03-29T15:17:50.112Z,15.64
2023-03-29T15:23:13.582Z,15.53
2023-03-29T15:28:31.708Z,15.44
2023-03-29T15:33:39.796Z,15.33
2023-03-29T15:38:45.431Z,15.29
2023-03-29T15:43:48.297Z,15.22
2023-03-29T15:48:50.952Z,15.11
2023-03-29T15:53:53.553Z,14.99
2023-03-29T15:58:56.260Z,14.89
2023-03-29T16:03:59.999Z,14.82
2023-03-29T16:09:03.234Z,14.84
2023-03-29T16:14:25.517Z,14.78
2023-03-29T16:19:29.850Z,14.72
2023-03-29T16:24:36.089Z,14.62
2023-03-29T16:29:38.785Z,14.47
2023-03-29T16:34:42.463Z,14.36
2023-03-29T16:39:46.756Z,14.33
2023-03-29T16:44:49.387Z,14.22
2023-03-29T16:49:54.959Z,14.23
2023-03-29T16:54:57.686Z,14.21
2023-03-29T17:00:00.584Z,14.20
2023-03-29T17:05:03.663Z,14.19
2023-03-29T17:10:11.121Z,14.11
2023-03-29T17:15:16.180Z,14.04
2023-03-29T17:20:21.979Z,13.84
2023-03-29T17:25:25.297Z,13.65
2023-03-29T17:30:29.181Z,13.51
2023-03-29T17:35:32.348Z,13.48
2023-03-29T17:40:35.050Z,13.44
2023-03-29T17:45:37.981Z,13.43
2023-03-29T17:50:40.681Z,13.32
2023-03-29T17:55:44.385Z,13.39
2023-03-29T18:00:47.438Z,13.33
2023-03-29T18:05:50.279Z,13.36
2023-03-29T18:10:53.062Z,13.40
2023-03-29T18:15:56.897Z,13.40
2023-03-29T18:21:00.168Z,13.38
2023-03-29T18:31:24.116Z,13.40
2023-03-29T18:36:26.856Z,13.31
2023-03-29T18:41:29.421Z,13.33
2023-03-29T18:46:33.443Z,13.38
2023-03-29T18:51:38.553Z,13.36
2023-03-29T18:56:41.176Z,13.17
2023-03-29T19:01:44.242Z,13.15
2023-03-29T19:06:49.630Z,13.13
2023-03-29T19:11:52.212Z,13.12
2023-03-29T19:16:54.766Z,13.04
2023-03-29T19:22:00.507Z,13.04
2023-03-29T19:27:03.984Z,13.06
2023-03-29T19:32:07.161Z,12.99
2023-03-29T19:37:10.009Z,12.92
2023-03-29T19:42:12.774Z,12.83
2023-03-29T19:47:16.103Z,12.87
2023-03-29T19:52:18.917Z,12.70
2023-03-29T19:57:24.104Z,12.74
2023-03-29T20:02:26.707Z,12.77
2023-03-29T20:07:32.275Z,12.81
2023-03-29T20:12:36.358Z,12.81
2023-03-29T20:17:42.254Z,12.84
2023-03-29T20:22:45.712Z,12.84
2023-03-29T20:27:49.677Z,12.85
2023-03-29T20:32:52.260Z,12.91
2023-03-29T20:37:54.789Z,12.95
2023-03-29T20:42:57.329Z,12.87
2023-03-29T20:48:02.510Z,12.86
2023-03-29T20:53:06.637Z,12.77
2023-03-29T20:58:09.481Z,12.64
2023-03-29T21:03:12.599Z,12.52
2023-03-29T21:08:17.815Z,12.42
2023-03-29T21:13:20.694Z,12.37
2023-03-29T21:18:23.740Z,12.34
2023-03-29T21:23:27.286Z,12.31
2023-03-29T21:28:31.228Z,12.27
2023-03-29T21:33:34.972Z,12.18
2023-03-29T21:38:37.492Z,12.20
2023-03-29T21:43:43.360Z,12.20
2023-03-29T21:48:45.994Z,12.16
2023-03-29T21:53:48.544Z,12.16
2023-03-29T21:58:51.299Z,12.06
2023-03-29T22:03:54.095Z,11.99
2023-03-29T22:08:57.036Z,11.93
2023-03-29T22:13:59.567Z,11.93
2023-03-29T22:19:02.142Z,11.74
2023-03-29T22:24:05.301Z,11.67
2023-03-29T22:29:08.129Z,11.58
2023-03-29T22:34:10.808Z,11.58
2023-03-29T22:39:13.762Z,11.53
2023-03-29T22:44:16.518Z,11.45
2023-03-29T22:49:21.797Z,11.52
2023-03-29T22:54:24.321Z,11.52
2023-03-29T22:59:27.548Z,11.52
2023-03-29T23:04:30.150Z,11.45
2023-03-29T23:09:33.211Z,11.41
2023-03-29T23:14:38.039Z,11.41
2023-03-29T23:19:40.659Z,11.43
2023-03-29T23:24:44.302Z,11.42
2023-03-29T23:29:46.721Z,11.50
2023-03-29T23:34:49.275Z,11.47
2023-03-29T23:39:51.780Z,11.55
2023-03-29T23:44:54.400Z,11.56
2023-03-29T23:49:57.032Z,11.55
2023-03-29T23:55:00.978Z,11.41
